createdAt,value
2023-05-03T05:36:57.423Z,9.37
2023-05-03T05:37:57.394Z,9.36
2023-05-03T05:38:57.411Z,9.41
2023-05-03T05:39:57.420Z,9.40
2023-05-03T05:40:57.409Z,9.46
2023-05-03T05:41:57.411Z,9.48
2023-05-03T05:42:57.421Z,9.50
2023-05-03T05:43:57.427Z,9.56
2023-05-03T05:44:58.447Z,9.59
2023-05-03T05:45:57.426Z,9.66
2023-05-03T05:46:57.485Z,9.65
2023-05-03T05:47:57.465Z,9.68
2023-05-03T05:48:57.448Z,9.65
2023-05-03T05:49:57.450Z,9.73
2023-05-03T05:50:57.448Z,9.79
2023-05-03T05:51:57.450Z,9.79
2023-05-03T05:52:57.491Z,9.73
2023-05-03T05:53:57.461Z,9.73
2023-05-03T05:54:57.470Z,9.73
2023-05-03T05:55:57.472Z,9.82
2023-05-03T05:56:57.469Z,9.83
2023-05-03T05:57:57.487Z,9.82
2023-05-03T05:58:57.483Z,9.80
2023-05-03T05:59:57.482Z,9.94
2023-05-03T06:00:57.502Z,9.92
2023-05-03T06:01:57.507Z,10.01
2023-05-03T06:02:57.536Z,9.99
2023-05-03T06:03:57.499Z,10.01
2023-05-03T06:04:57.546Z,10.01
2023-05-03T06:05:57.510Z,10.02
2023-05-03T06:06:57.518Z,9.99
2023-05-03T06:07:57.526Z,10.10
2023-05-03T06:08:57.554Z,10.19
2023-05-03T06:09:57.529Z,10.22
2023-05-03T06:10:57.532Z,10.23
2023-05-03T06:11:57.540Z,10.25
2023-05-03T06:12:57.550Z,10.33
2023-05-03T06:13:57.547Z,10.33
2023-05-03T06:15:02.409Z,10.22
2023-05-03T06:15:57.556Z,10.28
2023-05-03T06:16:57.619Z,10.38
2023-05-03T06:17:57.587Z,10.40
2023-05-03T06:18:57.562Z,10.44
2023-05-03T06:20:40.106Z,10.46
2023-05-03T06:21:40.119Z,10.48
2023-05-03T06:22:40.128Z,10.49
2023-05-03T06:23:40.126Z,10.42
2023-05-03T06:24:44.001Z,10.41
2023-05-03T06:25:40.117Z,10.49
2023-05-03T06:26:40.132Z,10.49
2023-05-03T06:27:40.134Z,10.41
2023-05-03T06:28:40.134Z,10.57
2023-05-03T06:29:40.148Z,10.53
2023-05-03T06:30:44.245Z,10.64
2023-05-03T06:31:40.273Z,10.63
2023-05-03T06:32:40.208Z,10.76
2023-05-03T06:33:40.150Z,10.71
2023-05-03T06:34:40.157Z,10.71
2023-05-03T06:35:40.174Z,10.81
2023-05-03T06:36:40.164Z,10.84
2023-05-03T06:38:22.710Z,10.84
2023-05-03T06:39:22.711Z,10.96
2023-05-03T06:40:22.754Z,10.90
2023-05-03T06:41:22.717Z,10.94
2023-05-03T06:43:09.416Z,11.00
2023-05-03T06:44:05.282Z,10.99
2023-05-03T06:45:05.272Z,10.99
2023-05-03T06:46:05.316Z,10.96
2023-05-03T06:48:02.952Z,10.96
2023-05-03T06:49:02.948Z,10.97
2023-05-03T06:50:03.061Z,10.94
2023-05-03T06:51:02.876Z,10.94
2023-05-03T06:52:45.417Z,10.99
2023-05-03T06:55:23.066Z,10.93
2023-05-03T07:29:58.433Z,12.28
2023-05-03T07:30:58.379Z,12.36
2023-05-03T07:31:58.392Z,12.39
2023-05-03T07:32:58.516Z,12.46
2023-05-03T07:36:24.240Z,12.32
2023-05-03T07:37:24.254Z,12.31
2023-05-03T07:38:24.252Z,12.36
2023-05-03T07:40:21.820Z,12.35
2023-05-03T07:41:21.830Z,12.42
2023-05-03T07:42:21.853Z,12.46
2023-05-03T07:47:41.148Z,12.60
2023-05-03T07:48:41.018Z,12.58
2023-05-03T07:49:41.025Z,12.57
2023-05-03T07:50:41.036Z,12.78
2023-05-03T07:51:41.045Z,12.75
2023-05-03T07:52:41.030Z,12.86
2023-05-03T07:53:41.039Z,12.83
2023-05-03T07:54:41.042Z,12.83
2023-05-03T07:55:41.049Z,12.97
2023-05-03T07:56:41.081Z,12.94
2023-05-03T07:57:41.089Z,13.01
2023-05-03T07:59:28.626Z,13.23
2023-05-03T08:00:28.630Z,13.33
2023-05-03T08:01:28.630Z,13.39
2023-05-03T08:53:07.146Z,16.02
2023-05-03T08:54:07.111Z,15.82
2023-05-03T08:55:07.118Z,15.79
2023-05-03T08:56:07.142Z,15.77
2023-05-03T08:57:07.143Z,15.77
